OEMA/MED METAR and TAF weather

Enter ICAO airport designator
Station Type Date Time Source
OEMA METAR 2021/05/10 01:00 UTC NOAA

OEMA 100100Z 13011KT CAVOK 30/02 Q1012 NOSIG


Station Type Date Time Source
OEMA Decoded METAR 2021/05/10 01:00 UTC NOAA

Madinah, Saudi Arabia (OEMA) 24-33N 039-42E 636M
May 09, 2021 - 09:00 PM EDT / 2021.05.10 0100 UTC
Wind: from the SE (130 degrees) at 13 MPH (11 KT):0
Visibility: greater than 7 mile(s):0
Temperature: 86 F (30 C)
Dew Point: 35 F (2 C)
Relative Humidity: 16%
Pressure (altimeter): 29.88 in. Hg (1012 hPa)
ob: OEMA 100100Z 13011KT CAVOK 30/02 Q1012 NOSIG
cycle: 1

Station Type Date Time Source
OEMA TAF 2021/05/09 18:12 UTC NOAA

TAF OEMA 091700Z 0918/1024 34006KT CAVOK
BECMG 1004/1006 09013KT 7000 NSC

Example: see airport list